createdAt,value
2024-02-02T00:00:57.665Z,4.12
2024-02-02T00:03:24.942Z,4.10
2024-02-02T00:05:51.718Z,4.10
2024-02-02T00:08:18.546Z,4.08
2024-02-02T00:10:45.989Z,4.07
2024-02-02T00:13:13.540Z,4.05
2024-02-02T00:15:40.589Z,4.02
2024-02-02T00:18:07.657Z,3.98
2024-02-02T00:20:34.414Z,3.92
2024-02-02T00:23:02.186Z,3.87
2024-02-02T00:25:29.555Z,3.82
2024-02-02T00:27:56.370Z,3.76
2024-02-02T00:30:24.091Z,3.68
2024-02-02T00:32:51.725Z,3.57
2024-02-02T00:35:19.374Z,3.47
2024-02-02T00:37:48.180Z,3.39
2024-02-02T00:47:01.284Z,3.05
2024-02-02T00:49:28.224Z,2.96
2024-02-02T00:51:55.478Z,2.89
2024-02-02T00:54:22.298Z,2.85
2024-02-02T00:56:49.046Z,2.82
2024-02-02T00:59:16.204Z,2.78
2024-02-02T01:01:43.002Z,2.74
2024-02-02T01:04:10.764Z,2.68
2024-02-02T01:06:38.524Z,2.64
2024-02-02T01:09:05.839Z,2.60
2024-02-02T01:11:33.186Z,2.56
2024-02-02T01:14:00.009Z,2.53
2024-02-02T01:16:27.286Z,2.47
2024-02-02T01:18:54.144Z,2.42
2024-02-02T01:21:21.054Z,2.38
2024-02-02T01:23:48.863Z,2.36
2024-02-02T01:26:15.686Z,2.37
2024-02-02T01:28:43.090Z,2.40
2024-02-02T01:31:10.647Z,2.43
2024-02-02T01:33:37.842Z,2.48
2024-02-02T01:36:05.016Z,2.53
2024-02-02T01:38:31.574Z,2.56
2024-02-02T01:40:58.392Z,2.60
2024-02-02T01:43:26.736Z,2.62
2024-02-02T01:45:53.473Z,2.67
2024-02-02T01:48:20.984Z,2.72
2024-02-02T01:50:47.791Z,2.75
2024-02-02T02:04:15.378Z,2.95
2024-02-02T02:06:44.670Z,2.99
2024-02-02T02:09:11.412Z,3.05
2024-02-02T02:11:38.421Z,3.08
2024-02-02T02:14:05.167Z,3.12
2024-02-02T02:16:33.106Z,3.16
2024-02-02T02:19:03.704Z,3.19
2024-02-02T02:21:31.547Z,3.22
2024-02-02T02:23:58.756Z,3.26
2024-02-02T02:26:27.548Z,3.29
2024-02-02T02:28:54.322Z,3.33
2024-02-02T02:31:21.384Z,3.35
2024-02-02T02:33:48.225Z,3.37
2024-02-02T02:36:15.993Z,3.36
2024-02-02T02:38:43.630Z,3.38
2024-02-02T02:41:10.658Z,3.39
2024-02-02T02:43:37.816Z,3.42
2024-02-02T02:46:05.007Z,3.46
2024-02-02T02:48:32.089Z,3.49
2024-02-02T02:50:59.075Z,3.51
2024-02-02T02:53:25.871Z,3.55
2024-02-02T02:55:52.976Z,3.58
2024-02-02T02:58:20.827Z,3.59
2024-02-02T03:00:48.074Z,3.59
2024-02-02T03:03:14.871Z,3.59
2024-02-02T03:05:41.864Z,3.59
2024-02-02T03:08:08.663Z,3.61
2024-02-02T03:10:35.431Z,3.64
2024-02-02T03:13:02.313Z,3.67
2024-02-02T03:15:32.189Z,3.69
2024-02-02T03:17:58.892Z,3.72
2024-02-02T03:20:27.209Z,3.74
2024-02-02T03:22:55.867Z,3.76
2024-02-02T03:25:24.519Z,3.77
2024-02-02T03:27:51.818Z,3.78
2024-02-02T03:30:18.510Z,3.77
2024-02-02T03:32:46.443Z,3.78
2024-02-02T03:35:13.254Z,3.81
2024-02-02T03:37:40.389Z,3.80
2024-02-02T03:40:09.437Z,3.78
2024-02-02T03:42:36.560Z,3.77
2024-02-02T03:45:04.560Z,3.73
2024-02-02T03:47:31.874Z,3.69
2024-02-02T03:49:59.000Z,3.64
2024-02-02T03:52:26.719Z,3.63
2024-02-02T03:54:53.593Z,3.65
2024-02-02T03:57:20.668Z,3.65
2024-02-02T03:59:47.229Z,3.65
2024-02-02T04:02:17.604Z,3.66
2024-02-02T04:04:45.698Z,3.67
2024-02-02T04:07:12.533Z,3.67
2024-02-02T04:09:39.487Z,3.71
2024-02-02T04:12:06.877Z,3.72
2024-02-02T04:14:33.425Z,3.74
2024-02-02T04:17:02.455Z,3.75
2024-02-02T04:19:29.835Z,3.75
2024-02-02T04:21:56.842Z,3.75
2024-02-02T04:24:23.991Z,3.71
2024-02-02T04:26:50.549Z,3.69
2024-02-02T04:29:17.222Z,3.69
2024-02-02T04:31:43.989Z,3.70
2024-02-02T04:34:11.082Z,3.71
2024-02-02T04:36:39.415Z,3.71
2024-02-02T04:39:06.672Z,3.65
2024-02-02T04:41:33.303Z,3.68
2024-02-02T04:43:59.831Z,3.66
2024-02-02T04:46:26.660Z,3.64
2024-02-02T04:48:53.533Z,3.62
2024-02-02T04:51:20.534Z,3.62
2024-02-02T04:53:47.501Z,3.63
2024-02-02T04:56:14.843Z,3.62
2024-02-02T04:58:43.397Z,3.61
2024-02-02T05:01:10.326Z,3.59
2024-02-02T05:03:37.217Z,3.56
2024-02-02T05:06:03.893Z,3.50
2024-02-02T05:08:31.151Z,3.44
2024-02-02T05:10:59.014Z,3.38
2024-02-02T05:13:26.352Z,3.33
2024-02-02T05:15:53.752Z,3.26
2024-02-02T05:18:21.086Z,3.18
2024-02-02T05:20:49.677Z,3.11
2024-02-02T05:23:16.483Z,3.05
2024-02-02T05:25:43.141Z,3.02
2024-02-02T05:28:10.337Z,3.00
2024-02-02T05:30:38.480Z,2.99
2024-02-02T05:33:06.084Z,2.98
2024-02-02T05:35:33.014Z,2.94
2024-02-02T05:38:01.097Z,2.90
2024-02-02T05:40:30.732Z,2.90
2024-02-02T05:43:00.200Z,2.88
2024-02-02T05:45:27.865Z,2.88
2024-02-02T05:47:55.164Z,2.88
2024-02-02T05:50:21.995Z,2.86
2024-02-02T05:52:48.754Z,2.86
2024-02-02T05:55:15.681Z,2.86
2024-02-02T05:57:43.392Z,2.87
2024-02-02T06:00:14.201Z,2.90
2024-02-02T06:02:42.517Z,2.95
2024-02-02T06:05:10.909Z,3.00
2024-02-02T06:07:38.209Z,3.04
2024-02-02T06:10:05.364Z,3.11
2024-02-02T06:12:35.489Z,3.20
2024-02-02T06:15:05.840Z,3.28
2024-02-02T06:17:33.876Z,3.40
2024-02-02T06:20:01.262Z,3.54
2024-02-02T06:22:28.664Z,3.65
2024-02-02T06:24:55.967Z,3.75
2024-02-02T06:27:23.383Z,3.82
2024-02-02T06:29:51.016Z,3.86
2024-02-02T06:32:25.351Z,3.88
2024-02-02T06:34:57.631Z,3.89
2024-02-02T06:37:28.574Z,3.91
2024-02-02T06:39:57.228Z,3.92
2024-02-02T06:42:27.596Z,3.90
2024-02-02T06:44:55.694Z,3.89
2024-02-02T06:47:22.230Z,3.89
2024-02-02T06:49:49.082Z,3.89
2024-02-02T06:52:17.280Z,3.89
2024-02-02T06:54:44.744Z,3.88
2024-02-02T06:57:13.066Z,3.91
2024-02-02T06:59:41.280Z,3.93
2024-02-02T07:02:19.949Z,3.90
2024-02-02T07:04:47.983Z,3.84
2024-02-02T07:07:15.400Z,3.81
2024-02-02T07:09:48.705Z,3.82
2024-02-02T07:12:56.743Z,3.81
2024-02-02T07:15:28.884Z,3.80
2024-02-02T07:17:57.417Z,3.81
2024-02-02T07:20:28.998Z,3.84
2024-02-02T07:22:58.691Z,3.92
2024-02-02T07:25:27.017Z,4.03
2024-02-02T07:27:56.349Z,4.12
2024-02-02T07:30:56.673Z,4.21
2024-02-02T07:33:29.492Z,4.27
2024-02-02T07:35:59.568Z,4.30
2024-02-02T07:38:54.784Z,4.34
2024-02-02T07:41:25.868Z,4.39
2024-02-02T07:43:55.662Z,4.46
2024-02-02T07:46:24.008Z,4.55
2024-02-02T07:48:54.527Z,4.57
2024-02-02T07:51:25.550Z,4.60
2024-02-02T07:53:53.834Z,4.61
2024-02-02T07:56:27.575Z,4.66
2024-02-02T07:59:00.207Z,4.72
2024-02-02T08:01:33.614Z,4.77
2024-02-02T08:04:02.892Z,4.84
2024-02-02T08:06:34.154Z,4.89
2024-02-02T08:09:13.967Z,4.95
2024-02-02T08:11:42.353Z,5.03
2024-02-02T08:14:11.449Z,5.11
2024-02-02T08:16:39.658Z,5.17
2024-02-02T08:19:10.483Z,5.25
2024-02-02T08:24:25.502Z,5.34
2024-02-02T08:27:00.557Z,5.37
2024-02-02T08:29:33.417Z,5.47
2024-02-02T08:32:06.250Z,5.51
2024-02-02T08:34:33.682Z,5.52
2024-02-02T08:37:04.286Z,5.50
2024-02-02T08:39:39.021Z,5.50
2024-02-02T08:45:30.621Z,5.39
2024-02-02T08:51:01.985Z,5.36
2024-02-02T08:53:31.631Z,5.35
2024-02-02T08:56:01.521Z,5.36
2024-02-02T08:58:35.648Z,5.40
2024-02-02T09:01:04.717Z,5.49
2024-02-02T09:03:44.780Z,5.62
2024-02-02T09:06:48.735Z,5.77
2024-02-02T09:12:18.767Z,5.89
2024-02-02T09:14:46.029Z,5.88
2024-02-02T09:17:13.745Z,5.86
2024-02-02T09:19:41.800Z,5.87
2024-02-02T09:22:18.685Z,5.89
2024-02-02T09:24:47.356Z,5.94
2024-02-02T09:27:23.875Z,6.05
2024-02-02T09:29:52.424Z,6.13
2024-02-02T09:32:20.575Z,6.14
2024-02-02T09:34:48.587Z,6.11
2024-02-02T09:37:26.113Z,6.07
2024-02-02T09:39:55.067Z,6.07
2024-02-02T09:42:39.654Z,5.98
2024-02-02T09:45:13.080Z,5.84
2024-02-02T09:48:06.234Z,5.79
2024-02-02T09:51:06.511Z,5.77
2024-02-02T10:00:07.202Z,6.01
2024-02-02T10:02:39.196Z,6.58
2024-02-02T10:05:25.477Z,7.18
2024-02-02T10:08:36.984Z,7.53
2024-02-02T10:11:23.913Z,7.59
2024-02-02T10:14:28.296Z,7.43
2024-02-02T10:21:15.875Z,6.92
2024-02-02T10:24:11.976Z,6.75
2024-02-02T10:27:01.927Z,6.58
2024-02-02T10:30:08.929Z,6.38
2024-02-02T10:33:06.719Z,6.13
2024-02-02T10:35:40.001Z,5.96
2024-02-02T10:38:35.424Z,5.84
2024-02-02T10:41:28.693Z,5.78
2024-02-02T10:44:18.020Z,5.78
2024-02-02T10:46:52.692Z,5.83
2024-02-02T10:49:32.648Z,5.82
2024-02-02T10:52:25.101Z,5.78
2024-02-02T10:55:16.608Z,5.77
2024-02-02T10:57:54.245Z,5.76
2024-02-02T11:00:24.222Z,5.77
2024-02-02T11:02:54.743Z,5.78
2024-02-02T11:05:26.219Z,5.75
2024-02-02T11:08:09.165Z,5.68
2024-02-02T11:10:59.771Z,5.60
2024-02-02T11:13:45.383Z,5.56
2024-02-02T11:16:31.350Z,5.55
2024-02-02T11:19:07.121Z,5.54
2024-02-02T11:21:43.590Z,5.54
2024-02-02T11:24:22.370Z,5.62
2024-02-02T11:27:05.024Z,5.72
2024-02-02T11:29:41.176Z,5.79
2024-02-02T11:32:34.509Z,5.85
2024-02-02T11:35:11.795Z,5.87
2024-02-02T11:38:28.064Z,5.86
2024-02-02T11:41:02.179Z,5.88
2024-02-02T11:43:45.183Z,5.86
2024-02-02T11:46:14.130Z,5.77
2024-02-02T11:48:42.523Z,5.66
2024-02-02T11:51:10.372Z,5.65
2024-02-02T11:53:59.750Z,5.62
2024-02-02T11:56:41.393Z,5.59
2024-02-02T11:59:13.077Z,5.56
2024-02-02T12:01:40.518Z,5.57
2024-02-02T12:04:21.507Z,5.54
2024-02-02T12:06:56.899Z,5.48
2024-02-02T12:09:29.057Z,5.46
2024-02-02T12:11:55.981Z,5.42
2024-02-02T12:14:24.863Z,5.42
2024-02-02T12:16:52.085Z,5.42
2024-02-02T12:19:19.170Z,5.39
2024-02-02T12:21:48.307Z,5.36
2024-02-02T12:24:17.456Z,5.32
2024-02-02T12:26:49.237Z,5.29
2024-02-02T12:29:25.844Z,5.24
2024-02-02T12:31:53.652Z,5.20
2024-02-02T12:34:22.128Z,5.18
2024-02-02T12:36:49.378Z,5.16
2024-02-02T12:39:17.272Z,5.16
2024-02-02T12:41:44.719Z,5.17
2024-02-02T12:44:11.560Z,5.20
2024-02-02T12:46:44.700Z,5.23
2024-02-02T12:49:12.467Z,5.26
2024-02-02T12:51:39.936Z,5.27
2024-02-02T12:54:07.346Z,5.24
2024-02-02T12:56:34.144Z,5.18
2024-02-02T12:59:01.754Z,5.13
2024-02-02T13:01:29.432Z,5.10
2024-02-02T13:03:56.313Z,5.07
2024-02-02T13:06:23.212Z,5.03
2024-02-02T13:08:53.680Z,4.98
2024-02-02T13:11:20.772Z,4.91
2024-02-02T13:13:48.027Z,4.85
2024-02-02T13:16:31.829Z,4.82
2024-02-02T13:19:07.055Z,4.78
2024-02-02T13:21:43.211Z,4.77
2024-02-02T13:24:19.317Z,4.78
2024-02-02T13:26:51.578Z,4.78
2024-02-02T13:29:26.338Z,4.74
2024-02-02T13:31:53.992Z,4.72
2024-02-02T13:34:21.836Z,4.70
2024-02-02T13:36:49.278Z,4.71
2024-02-02T13:39:22.299Z,4.70
2024-02-02T13:41:49.532Z,4.71
2024-02-02T13:44:22.950Z,4.72
2024-02-02T13:46:50.155Z,4.74
2024-02-02T13:49:22.314Z,4.73
2024-02-02T13:51:49.408Z,4.74
2024-02-02T13:54:18.417Z,4.73
2024-02-02T13:56:45.285Z,4.72
2024-02-02T13:59:18.852Z,4.70
2024-02-02T14:01:53.061Z,4.68
2024-02-02T14:04:25.570Z,4.63
2024-02-02T14:06:52.540Z,4.57
2024-02-02T14:09:21.485Z,4.54
2024-02-02T14:11:48.548Z,4.49
2024-02-02T14:14:15.376Z,4.46
2024-02-02T14:16:42.658Z,4.42
2024-02-02T14:21:14.895Z,4.41
2024-02-02T14:23:43.291Z,4.38
2024-02-02T14:26:14.149Z,4.35
2024-02-02T14:28:41.414Z,4.32
2024-02-02T14:31:09.353Z,4.29
2024-02-02T14:33:36.733Z,4.29
2024-02-02T14:36:04.167Z,4.27
2024-02-02T14:38:31.816Z,4.24
2024-02-02T14:40:58.634Z,4.24
2024-02-02T14:43:25.498Z,4.23
2024-02-02T14:45:52.717Z,4.19
2024-02-02T14:48:19.756Z,4.17
2024-02-02T14:50:47.095Z,4.13
2024-02-02T14:53:14.142Z,4.07
2024-02-02T14:55:40.988Z,3.96
2024-02-02T14:58:08.843Z,3.89
2024-02-02T15:00:44.471Z,3.84
2024-02-02T15:03:12.356Z,3.81
2024-02-02T15:05:40.613Z,3.80
2024-02-02T15:08:08.663Z,3.78
2024-02-02T15:10:36.239Z,3.74
2024-02-02T15:13:05.891Z,3.69
2024-02-02T15:15:33.100Z,3.63
2024-02-02T15:18:01.045Z,3.60
2024-02-02T15:20:28.007Z,3.57
2024-02-02T15:22:54.855Z,3.53
2024-02-02T15:25:21.965Z,3.47
2024-02-02T15:27:49.130Z,3.40
2024-02-02T15:30:17.297Z,3.32
2024-02-02T15:32:47.075Z,3.24
2024-02-02T15:35:14.305Z,3.17
2024-02-02T15:37:41.531Z,3.10
2024-02-02T15:40:09.036Z,3.02
2024-02-02T15:42:37.038Z,2.94
2024-02-02T15:45:06.016Z,2.84
2024-02-02T15:47:37.873Z,2.76
2024-02-02T15:50:06.655Z,2.66
2024-02-02T15:52:34.054Z,2.58
2024-02-02T15:55:03.922Z,2.50
2024-02-02T15:57:32.847Z,2.43
2024-02-02T15:59:59.890Z,2.38
2024-02-02T16:08:25.508Z,2.20
2024-02-02T16:11:19.252Z,2.16
2024-02-02T16:14:07.035Z,2.15
2024-02-02T16:16:37.205Z,2.13
2024-02-02T16:19:05.663Z,2.15
2024-02-02T16:25:03.011Z,2.15
2024-02-02T16:27:31.213Z,2.12
2024-02-02T16:33:22.940Z,2.12
2024-02-02T16:35:53.768Z,2.12
2024-02-02T16:38:23.057Z,2.11
2024-02-02T16:40:51.044Z,2.07
2024-02-02T16:43:21.156Z,2.10
2024-02-02T16:45:51.839Z,2.09
2024-02-02T16:48:21.802Z,2.07
2024-02-02T16:50:49.737Z,2.05
2024-02-02T16:53:55.937Z,2.01
2024-02-02T16:56:24.415Z,1.98
2024-02-02T16:58:52.287Z,1.95
2024-02-02T17:01:34.333Z,1.93
2024-02-02T17:04:02.895Z,1.90
2024-02-02T17:09:18.749Z,1.86
2024-02-02T17:11:46.397Z,1.84
2024-02-02T17:14:15.338Z,1.83
2024-02-02T17:16:51.006Z,1.80
2024-02-02T17:19:22.606Z,1.77
2024-02-02T17:22:09.651Z,1.76
2024-02-02T17:24:56.922Z,1.73
2024-02-02T17:28:08.027Z,1.74
2024-02-02T17:30:38.839Z,1.72
2024-02-02T17:33:14.947Z,1.72
2024-02-02T17:35:47.049Z,1.71
2024-02-02T17:38:17.445Z,1.70
2024-02-02T17:40:46.907Z,1.69
2024-02-02T17:43:14.790Z,1.69
2024-02-02T17:45:47.790Z,1.70
2024-02-02T17:48:16.338Z,1.69
2024-02-02T17:50:47.591Z,1.68
2024-02-02T17:53:15.137Z,1.66
2024-02-02T18:04:50.572Z,1.62
2024-02-02T18:21:25.579Z,1.83
2024-02-02T18:23:52.720Z,1.86
2024-02-02T18:26:20.345Z,1.83
2024-02-02T18:28:49.480Z,1.79
2024-02-02T18:31:16.821Z,1.73
2024-02-02T18:33:47.324Z,1.66
2024-02-02T18:36:20.611Z,1.59
2024-02-02T18:38:47.335Z,1.53
2024-02-02T18:41:14.189Z,1.48
2024-02-02T18:43:41.103Z,1.42
2024-02-02T18:46:07.946Z,1.37
2024-02-02T18:48:39.887Z,1.31
2024-02-02T18:51:15.650Z,1.27
2024-02-02T18:53:43.101Z,1.21
2024-02-02T18:56:10.517Z,1.18
2024-02-02T18:58:42.511Z,1.16
2024-02-02T19:01:25.242Z,1.13
2024-02-02T19:03:54.064Z,1.11
2024-02-02T19:06:22.128Z,1.08
2024-02-02T19:08:49.965Z,1.05
2024-02-02T19:11:17.669Z,1.02
2024-02-02T19:13:44.758Z,1.00
2024-02-02T19:16:19.190Z,0.98
2024-02-02T19:18:47.032Z,0.95
2024-02-02T19:21:22.803Z,0.93
2024-02-02T19:24:09.935Z,0.89
2024-02-02T19:26:37.438Z,0.86
2024-02-02T19:29:04.384Z,0.83
2024-02-02T19:31:32.414Z,0.81
2024-02-02T19:34:10.830Z,0.79
2024-02-02T19:36:51.096Z,0.78
2024-02-02T19:39:46.980Z,0.75
2024-02-02T19:42:17.556Z,0.73
2024-02-02T19:44:47.117Z,0.71
2024-02-02T19:47:14.725Z,0.71
2024-02-02T19:49:46.112Z,0.69
2024-02-02T19:52:15.179Z,0.68
2024-02-02T19:54:49.023Z,0.66
2024-02-02T19:57:19.336Z,0.66
2024-02-02T19:59:46.429Z,0.65
2024-02-02T20:02:15.854Z,0.64
2024-02-02T20:04:43.044Z,0.63
2024-02-02T20:07:11.949Z,0.62
2024-02-02T20:09:39.164Z,0.60
2024-02-02T20:12:06.625Z,0.60
2024-02-02T20:14:34.786Z,0.60
2024-02-02T20:17:03.609Z,0.59
2024-02-02T20:19:31.550Z,0.57
2024-02-02T20:22:00.968Z,0.57
2024-02-02T20:24:28.134Z,0.57
2024-02-02T20:26:56.006Z,0.55
2024-02-02T20:29:23.442Z,0.55
2024-02-02T20:31:51.253Z,0.55
2024-02-02T20:34:18.227Z,0.54
2024-02-02T20:36:45.776Z,0.55
2024-02-02T20:39:13.291Z,0.54
2024-02-02T20:41:40.606Z,0.53
2024-02-02T20:44:08.849Z,0.52
2024-02-02T20:46:36.019Z,0.51
2024-02-02T20:49:06.451Z,0.49
2024-02-02T20:51:33.490Z,0.48
2024-02-02T20:54:00.373Z,0.46
2024-02-02T20:56:27.535Z,0.45
2024-02-02T20:58:54.636Z,0.45
2024-02-02T21:01:22.697Z,0.44
2024-02-02T21:03:49.704Z,0.44
2024-02-02T21:06:16.951Z,0.41
2024-02-02T21:08:44.327Z,0.39
2024-02-02T21:11:12.179Z,0.39
2024-02-02T21:13:40.518Z,0.38
2024-02-02T21:16:08.392Z,0.40
2024-02-02T21:18:35.695Z,0.40
2024-02-02T21:21:03.845Z,0.39
2024-02-02T21:23:31.028Z,0.38
2024-02-02T21:25:59.868Z,0.37
2024-02-02T21:28:26.670Z,0.36
2024-02-02T21:30:58.882Z,0.35
2024-02-02T21:33:27.026Z,0.35
2024-02-02T21:35:54.318Z,0.35
2024-02-02T21:38:21.104Z,0.34
2024-02-02T21:40:48.433Z,0.33
2024-02-02T21:43:15.130Z,0.33
2024-02-02T21:45:42.516Z,0.31
2024-02-02T21:48:11.213Z,0.29
2024-02-02T21:50:44.131Z,0.27
2024-02-02T21:53:13.551Z,0.26
2024-02-02T21:55:40.935Z,0.24
2024-02-02T21:58:10.374Z,0.21
2024-02-02T22:00:37.821Z,0.17
2024-02-02T22:03:05.354Z,0.14
2024-02-02T22:05:33.056Z,0.10
2024-02-02T22:08:00.338Z,0.08
2024-02-02T22:10:27.155Z,0.07
2024-02-02T22:12:54.146Z,0.04
2024-02-02T22:15:21.418Z,0.02
2024-02-02T22:17:48.633Z,0.00
2024-02-02T22:20:15.630Z,0.00
2024-02-02T22:22:42.539Z,0.01
2024-02-02T22:25:09.315Z,0.01
2024-02-02T22:27:37.867Z,0.01
2024-02-02T22:30:06.577Z,0.01
2024-02-02T22:32:34.746Z,0.00
2024-02-02T22:35:04.609Z,0.00
2024-02-02T22:37:31.812Z,-0.01
2024-02-02T22:39:58.830Z,0.01
2024-02-02T22:42:27.519Z,0.00
2024-02-02T22:44:54.333Z,-0.01
2024-02-02T22:47:21.781Z,-0.02
2024-02-02T22:49:49.065Z,-0.04
2024-02-02T22:52:15.662Z,-0.05
2024-02-02T22:54:42.631Z,-0.06
2024-02-02T22:57:09.385Z,-0.09
2024-02-02T22:59:36.643Z,-0.09
2024-02-02T23:02:03.270Z,-0.09
2024-02-02T23:04:30.410Z,-0.09
2024-02-02T23:06:57.367Z,-0.09
2024-02-02T23:09:24.545Z,-0.09
2024-02-02T23:11:51.921Z,-0.06
2024-02-02T23:14:19.890Z,-0.03
2024-02-02T23:16:47.345Z,0.04
2024-02-02T23:19:14.388Z,0.09
2024-02-02T23:21:41.543Z,0.15
2024-02-02T23:24:11.046Z,0.23
2024-02-02T23:26:37.919Z,0.30
2024-02-02T23:29:05.380Z,0.37
2024-02-02T23:31:33.266Z,0.43
2024-02-02T23:34:00.238Z,0.47
2024-02-02T23:36:27.231Z,0.52
2024-02-02T23:38:56.324Z,0.58
2024-02-02T23:41:23.243Z,0.62
2024-02-02T23:43:53.210Z,0.68
2024-02-02T23:46:20.022Z,0.74
2024-02-02T23:48:47.275Z,0.78
2024-02-02T23:51:14.028Z,0.82
2024-02-02T23:57:37.595Z,0.91
